sensor_id;sensor_type;location;lat;lon;timestamp;pressure;altitude;pressure_sealevel;temperature;humidity
63665;BME280;49820;33.966;73.390;2023-09-30T00:02:04;78862.03;;;11.24;100.00
63665;BME280;49820;33.966;73.390;2023-09-30T00:04:33;78825.34;;;10.93;100.00
63665;BME280;49820;33.966;73.390;2023-09-30T00:07:02;78805.94;;;10.66;100.00
63665;BME280;49820;33.966;73.390;2023-09-30T00:09:47;78864.41;;;11.09;100.00
63665;BME280;49820;33.966;73.390;2023-09-30T00:12:16;78861.84;;;11.03;100.00
63665;BME280;49820;33.966;73.390;2023-09-30T00:14:45;78837.66;;;10.80;100.00
63665;BME280;49820;33.966;73.390;2023-09-30T00:17:16;78833.38;;;10.62;100.00
63665;BME280;49820;33.966;73.390;2023-09-30T00:19:45;78821.44;;;10.59;100.00
63665;BME280;49820;33.966;73.390;2023-09-30T00:22:14;78837.16;;;10.74;100.00
63665;BME280;49820;33.966;73.390;2023-09-30T00:24:43;78865.44;;;10.93;100.00
63665;BME280;49820;33.966;73.390;2023-09-30T00:27:12;78820.41;;;10.46;100.00
63665;BME280;49820;33.966;73.390;2023-09-30T00:29:41;78843.19;;;10.72;100.00
63665;BME280;49820;33.966;73.390;2023-09-30T00:32:10;78857.13;;;10.77;100.00
63665;BME280;49820;33.966;73.390;2023-09-30T00:34:39;78829.59;;;10.53;100.00
63665;BME280;49820;33.966;73.390;2023-09-30T00:37:11;78843.88;;;10.70;100.00
63665;BME280;49820;33.966;73.390;2023-09-30T00:39:41;78788.25;;;10.21;100.00
63665;BME280;49820;33.966;73.390;2023-09-30T00:42:13;78826.88;;;10.55;100.00
63665;BME280;49820;33.966;73.390;2023-09-30T00:44:42;78807.09;;;10.44;100.00
63665;BME280;49820;33.966;73.390;2023-09-30T00:47:11;78825.00;;;10.50;100.00
63665;BME280;49820;33.966;73.390;2023-09-30T00:49:39;78845.88;;;10.72;100.00
63665;BME280;49820;33.966;73.390;2023-09-30T00:52:10;78832.28;;;10.53;100.00
63665;BME280;49820;33.966;73.390;2023-09-30T00:54:39;78827.16;;;10.43;100.00
63665;BME280;49820;33.966;73.390;2023-09-30T00:57:08;78846.69;;;10.64;100.00
63665;BME280;49820;33.966;73.390;2023-09-30T00:59:38;78838.19;;;10.58;100.00
63665;BME280;49820;33.966;73.390;2023-09-30T01:02:09;78851.88;;;10.73;100.00
63665;BME280;49820;33.966;73.390;2023-09-30T01:04:38;78832.34;;;10.49;100.00
63665;BME280;49820;33.966;73.390;2023-09-30T01:07:09;78848.53;;;10.72;100.00
63665;BME280;49820;33.966;73.390;2023-09-30T01:09:39;78826.97;;;10.51;100.00
63665;BME280;49820;33.966;73.390;2023-09-30T01:12:08;78814.28;;;10.52;100.00
63665;BME280;49820;33.966;73.390;2023-09-30T01:14:37;78876.72;;;10.96;100.00
63665;BME280;49820;33.966;73.390;2023-09-30T01:17:27;78888.81;;;11.22;100.00
63665;BME280;49820;33.966;73.390;2023-09-30T01:19:58;78883.09;;;11.38;100.00
63665;BME280;49820;33.966;73.390;2023-09-30T01:22:28;78883.09;;;11.38;100.00
63665;BME280;49820;33.966;73.390;2023-09-30T01:24:58;78852.16;;;11.45;100.00
63665;BME280;49820;33.966;73.390;2023-09-30T01:27:27;78854.09;;;11.75;100.00
63665;BME280;49820;33.966;73.390;2023-09-30T01:29:57;78856.75;;;12.00;100.00
63665;BME280;49820;33.966;73.390;2023-09-30T01:32:26;78877.25;;;12.35;100.00
63665;BME280;49820;33.966;73.390;2023-09-30T01:34:55;78839.94;;;12.29;100.00
63665;BME280;49820;33.966;73.390;2023-09-30T01:37:27;78891.50;;;12.99;100.00
63665;BME280;49820;33.966;73.390;2023-09-30T01:39:56;78899.75;;;13.39;100.00
63665;BME280;49820;33.966;73.390;2023-09-30T01:42:26;78908.81;;;13.71;100.00
63665;BME280;49820;33.966;73.390;2023-09-30T01:44:56;78869.94;;;13.70;100.00
63665;BME280;49820;33.966;73.390;2023-09-30T01:47:26;78901.50;;;14.32;100.00
63665;BME280;49820;33.966;73.390;2023-09-30T01:49:55;78887.94;;;14.57;99.88
63665;BME280;49820;33.966;73.390;2023-09-30T01:52:23;78909.41;;;14.96;100.00
63665;BME280;49820;33.966;73.390;2023-09-30T01:54:52;78883.31;;;15.11;98.09
63665;BME280;49820;33.966;73.390;2023-09-30T01:57:22;78866.78;;;15.40;96.20
63665;BME280;49820;33.966;73.390;2023-09-30T01:59:51;78869.34;;;15.80;91.68
63665;BME280;49820;33.966;73.390;2023-09-30T02:02:20;78888.41;;;16.26;93.46
63665;BME280;49820;33.966;73.390;2023-09-30T02:04:49;78876.41;;;16.56;91.09
63665;BME280;49820;33.966;73.390;2023-09-30T02:07:18;78910.19;;;17.20;90.08
63665;BME280;49820;33.966;73.390;2023-09-30T02:09:49;78914.75;;;17.40;87.69
63665;BME280;49820;33.966;73.390;2023-09-30T02:12:18;78911.03;;;17.65;84.11
63665;BME280;49820;33.966;73.390;2023-09-30T02:14:47;78899.88;;;17.87;82.88
63665;BME280;49820;33.966;73.390;2023-09-30T02:17:15;78893.16;;;17.86;79.16
63665;BME280;49820;33.966;73.390;2023-09-30T02:19:45;78928.72;;;18.52;82.86
63665;BME280;49820;33.966;73.390;2023-09-30T02:22:16;78905.41;;;18.44;75.94
63665;BME280;49820;33.966;73.390;2023-09-30T02:24:48;78932.91;;;18.93;73.58
63665;BME280;49820;33.966;73.390;2023-09-30T02:27:16;78885.00;;;18.89;75.18
63665;BME280;49820;33.966;73.390;2023-09-30T02:29:45;78901.56;;;19.25;72.52
63665;BME280;49820;33.966;73.390;2023-09-30T02:32:14;78929.28;;;19.68;70.49
63665;BME280;49820;33.966;73.390;2023-09-30T02:34:43;78931.44;;;20.05;71.24
63665;BME280;49820;33.966;73.390;2023-09-30T02:37:12;78937.72;;;20.42;67.80
63665;BME280;49820;33.966;73.390;2023-09-30T02:39:42;78938.38;;;20.55;66.92
63665;BME280;49820;33.966;73.390;2023-09-30T02:42:11;78920.47;;;20.60;68.08
63665;BME280;49820;33.966;73.390;2023-09-30T02:44:41;78940.00;;;21.01;64.59
63665;BME280;49820;33.966;73.390;2023-09-30T02:47:10;78948.06;;;21.15;66.35
63665;BME280;49820;33.966;73.390;2023-09-30T02:49:38;78927.41;;;21.08;68.23
63665;BME280;49820;33.966;73.390;2023-09-30T02:52:07;78952.94;;;21.25;66.25
63665;BME280;49820;33.966;73.390;2023-09-30T02:54:36;78941.41;;;21.12;65.74
63665;BME280;49820;33.966;73.390;2023-09-30T02:57:05;78947.72;;;21.47;63.78
63665;BME280;49820;33.966;73.390;2023-09-30T02:59:33;78956.94;;;22.00;62.65
63665;BME280;49820;33.966;73.390;2023-09-30T03:02:02;78947.91;;;22.04;61.40
63665;BME280;49820;33.966;73.390;2023-09-30T03:04:31;78934.31;;;21.91;62.96
63665;BME280;49820;33.966;73.390;2023-09-30T03:07:00;78940.72;;;22.22;62.00
63665;BME280;49820;33.966;73.390;2023-09-30T03:09:30;78940.41;;;22.28;61.12
63665;BME280;49820;33.966;73.390;2023-09-30T03:12:00;78968.91;;;22.52;64.94
63665;BME280;49820;33.966;73.390;2023-09-30T03:14:28;78966.38;;;22.61;58.51
63665;BME280;49820;33.966;73.390;2023-09-30T03:16:59;78966.97;;;22.74;59.72
63665;BME280;49820;33.966;73.390;2023-09-30T03:19:28;78934.84;;;22.64;62.33
63665;BME280;49820;33.966;73.390;2023-09-30T03:22:00;78963.22;;;22.79;63.44
63665;BME280;49820;33.966;73.390;2023-09-30T03:24:34;78916.41;;;22.54;58.22
63665;BME280;49820;33.966;73.390;2023-09-30T03:27:03;78954.00;;;23.08;60.08
63665;BME280;49820;33.966;73.390;2023-09-30T03:29:32;78959.69;;;23.04;57.70
63665;BME280;49820;33.966;73.390;2023-09-30T03:32:01;78934.69;;;22.78;60.06
63665;BME280;49820;33.966;73.390;2023-09-30T03:34:30;78974.44;;;22.86;54.80
63665;BME280;49820;33.966;73.390;2023-09-30T03:36:58;78926.66;;;22.53;57.59
63665;BME280;49820;33.966;73.390;2023-09-30T03:39:27;78983.06;;;23.01;61.64
63665;BME280;49820;33.966;73.390;2023-09-30T03:41:56;78980.38;;;22.89;57.68
63665;BME280;49820;33.966;73.390;2023-09-30T03:44:26;78976.53;;;22.50;60.45
63665;BME280;49820;33.966;73.390;2023-09-30T03:46:56;78986.78;;;22.49;59.54
63665;BME280;49820;33.966;73.390;2023-09-30T03:49:28;78957.66;;;22.12;60.28
63665;BME280;49820;33.966;73.390;2023-09-30T03:51:57;78972.75;;;22.21;63.88
63665;BME280;49820;33.966;73.390;2023-09-30T03:54:26;78984.56;;;22.05;60.46
63665;BME280;49820;33.966;73.390;2023-09-30T03:56:55;78944.69;;;21.76;62.06
63665;BME280;49820;33.966;73.390;2023-09-30T03:59:41;78982.22;;;21.74;59.83
63665;BME280;49820;33.966;73.390;2023-09-30T04:02:10;78955.75;;;21.36;64.79
63665;BME280;49820;33.966;73.390;2023-09-30T04:04:39;78951.53;;;21.26;65.66
63665;BME280;49820;33.966;73.390;2023-09-30T04:07:07;78957.50;;;21.16;65.32
63665;BME280;49820;33.966;73.390;2023-09-30T04:09:38;78985.66;;;21.11;67.31
63665;BME280;49820;33.966;73.390;2023-09-30T04:12:07;79005.09;;;21.15;68.23
63665;BME280;49820;33.966;73.390;2023-09-30T04:14:39;78990.41;;;20.85;68.03
63665;BME280;49820;33.966;73.390;2023-09-30T04:17:11;78987.78;;;20.70;68.09
63665;BME280;49820;33.966;73.390;2023-09-30T04:19:40;78955.66;;;20.22;67.20
63665;BME280;49820;33.966;73.390;2023-09-30T04:22:09;78977.31;;;20.37;68.72
63665;BME280;49820;33.966;73.390;2023-09-30T04:24:38;78964.78;;;20.16;69.95
63665;BME280;49820;33.966;73.390;2023-09-30T04:27:07;78997.25;;;20.31;69.21
63665;BME280;49820;33.966;73.390;2023-09-30T04:29:39;78999.22;;;20.33;69.25
63665;BME280;49820;33.966;73.390;2023-09-30T04:32:09;78992.31;;;20.08;69.18
63665;BME280;49820;33.966;73.390;2023-09-30T04:34:38;79011.22;;;20.23;73.35
63665;BME280;49820;33.966;73.390;2023-09-30T04:37:10;78988.59;;;20.01;73.42
63665;BME280;49820;33.966;73.390;2023-09-30T04:39:38;78955.38;;;19.61;73.36
63665;BME280;49820;33.966;73.390;2023-09-30T04:42:07;79013.19;;;19.97;73.83
63665;BME280;49820;33.966;73.390;2023-09-30T04:44:39;79013.31;;;19.95;75.81
63665;BME280;49820;33.966;73.390;2023-09-30T04:47:10;79007.31;;;19.65;66.11
63665;BME280;49820;33.966;73.390;2023-09-30T04:49:39;79009.34;;;19.79;74.16
63665;BME280;49820;33.966;73.390;2023-09-30T04:52:08;78991.16;;;19.63;74.28
63665;BME280;49820;33.966;73.390;2023-09-30T04:54:37;78991.81;;;19.64;74.07
63665;BME280;49820;33.966;73.390;2023-09-30T04:57:06;78955.97;;;19.49;72.62
63665;BME280;49820;33.966;73.390;2023-09-30T04:59:35;79001.66;;;19.84;73.87
63665;BME280;49820;33.966;73.390;2023-09-30T05:02:05;78993.28;;;19.75;76.73
63665;BME280;49820;33.966;73.390;2023-09-30T05:04:36;79000.16;;;19.87;75.83
63665;BME280;49820;33.966;73.390;2023-09-30T05:07:05;79029.41;;;20.12;77.36
63665;BME280;49820;33.966;73.390;2023-09-30T05:09:34;79053.03;;;20.28;77.72
63665;BME280;49820;33.966;73.390;2023-09-30T05:12:04;79047.59;;;20.43;78.19
63665;BME280;49820;33.966;73.390;2023-09-30T05:14:33;79037.47;;;20.41;76.54
63665;BME280;49820;33.966;73.390;2023-09-30T05:17:02;79040.69;;;20.59;71.41
63665;BME280;49820;33.966;73.390;2023-09-30T05:19:33;79007.16;;;20.37;75.26
63665;BME280;49820;33.966;73.390;2023-09-30T05:22:01;79050.06;;;20.87;75.07
63665;BME280;49820;33.966;73.390;2023-09-30T05:24:31;79011.81;;;20.66;68.39
63665;BME280;49820;33.966;73.390;2023-09-30T05:27:00;78982.41;;;20.83;72.87
63665;BME280;49820;33.966;73.390;2023-09-30T05:29:29;79017.84;;;21.31;68.39
63665;BME280;49820;33.966;73.390;2023-09-30T05:32:00;79043.56;;;21.96;64.95
63665;BME280;49820;33.966;73.390;2023-09-30T05:34:32;79029.94;;;21.96;52.95
63665;BME280;49820;33.966;73.390;2023-09-30T05:37:01;79013.13;;;21.68;57.71
63665;BME280;49820;33.966;73.390;2023-09-30T05:39:31;79019.88;;;22.54;66.52
63665;BME280;49820;33.966;73.390;2023-09-30T05:42:00;79029.97;;;22.91;59.49
63665;BME280;49820;33.966;73.390;2023-09-30T05:44:29;79025.78;;;23.83;63.96
63665;BME280;49820;33.966;73.390;2023-09-30T05:46:58;79020.91;;;24.28;62.99
63665;BME280;49820;33.966;73.390;2023-09-30T05:49:31;79022.97;;;25.02;62.93
63665;BME280;49820;33.966;73.390;2023-09-30T05:52:00;79041.97;;;25.56;55.27
63665;BME280;49820;33.966;73.390;2023-09-30T05:54:29;79044.06;;;25.66;55.69
63665;BME280;49820;33.966;73.390;2023-09-30T05:56:58;78998.47;;;25.92;56.18
63665;BME280;49820;33.966;73.390;2023-09-30T05:59:29;78941.91;;;25.69;55.29
63665;BME280;49820;33.966;73.390;2023-09-30T06:01:58;79039.34;;;26.73;51.07
63665;BME280;49820;33.966;73.390;2023-09-30T06:04:27;79040.56;;;27.04;56.68
63665;BME280;49820;33.966;73.390;2023-09-30T06:06:56;79023.78;;;27.27;46.23
63665;BME280;49820;33.966;73.390;2023-09-30T06:09:28;79023.50;;;27.31;49.25
63665;BME280;49820;33.966;73.390;2023-09-30T06:11:59;79037.25;;;27.96;55.42
63665;BME280;49820;33.966;73.390;2023-09-30T06:14:32;79008.81;;;27.35;50.24
63665;BME280;49820;33.966;73.390;2023-09-30T06:17:03;79037.78;;;28.07;43.81
63665;BME280;49820;33.966;73.390;2023-09-30T06:19:32;79036.00;;;28.48;51.63
63665;BME280;49820;33.966;73.390;2023-09-30T06:22:00;79036.25;;;28.98;48.74
63665;BME280;49820;33.966;73.390;2023-09-30T06:24:32;79022.75;;;28.60;47.04
63665;BME280;49820;33.966;73.390;2023-09-30T06:27:01;78999.97;;;28.07;42.80
63665;BME280;49820;33.966;73.390;2023-09-30T06:29:29;79037.97;;;28.67;40.36
63665;BME280;49820;33.966;73.390;2023-09-30T06:31:58;79008.91;;;28.88;49.56
63665;BME280;49820;33.966;73.390;2023-09-30T06:34:27;79019.81;;;28.36;37.12
63665;BME280;49820;33.966;73.390;2023-09-30T06:36:56;79034.00;;;28.30;39.99
63665;BME280;49820;33.966;73.390;2023-09-30T06:39:24;78995.94;;;28.15;48.64
63665;BME280;49820;33.966;73.390;2023-09-30T06:41:53;79022.00;;;28.87;51.46
63665;BME280;49820;33.966;73.390;2023-09-30T06:44:22;79017.16;;;28.88;39.47
63665;BME280;49820;33.966;73.390;2023-09-30T06:46:53;79005.59;;;28.42;44.01
63665;BME280;49820;33.966;73.390;2023-09-30T06:49:23;79024.63;;;29.06;45.74
63665;BME280;49820;33.966;73.390;2023-09-30T06:51:52;79027.69;;;29.02;37.66
63665;BME280;49820;33.966;73.390;2023-09-30T06:54:21;79030.28;;;29.21;47.63
63665;BME280;49820;33.966;73.390;2023-09-30T06:56:50;79008.91;;;29.05;40.58
63665;BME280;49820;33.966;73.390;2023-09-30T06:59:28;79026.09;;;29.57;45.66
63665;BME280;49820;33.966;73.390;2023-09-30T07:01:57;79022.31;;;29.95;45.79
63665;BME280;49820;33.966;73.390;2023-09-30T07:04:25;79031.25;;;29.70;42.75
63665;BME280;49820;33.966;73.390;2023-09-30T07:06:54;78962.72;;;29.74;44.71
63665;BME280;49820;33.966;73.390;2023-09-30T07:09:24;78994.69;;;30.21;45.72
63665;BME280;49820;33.966;73.390;2023-09-30T07:11:53;79001.09;;;30.76;45.81
63665;BME280;49820;33.966;73.390;2023-09-30T07:14:22;79025.19;;;30.60;40.46
63665;BME280;49820;33.966;73.390;2023-09-30T07:16:51;79011.56;;;30.58;40.83
63665;BME280;49820;33.966;73.390;2023-09-30T07:19:20;78976.94;;;30.35;40.87
63665;BME280;49820;33.966;73.390;2023-09-30T07:21:49;78990.63;;;30.20;41.30
63665;BME280;49820;33.966;73.390;2023-09-30T07:24:31;79002.03;;;30.48;41.41
63665;BME280;49820;33.966;73.390;2023-09-30T07:27:00;78962.81;;;30.07;38.93
63665;BME280;49820;33.966;73.390;2023-09-30T07:29:29;79009.84;;;30.78;43.02
63665;BME280;49820;33.966;73.390;2023-09-30T07:32:04;78960.41;;;30.35;41.59
63665;BME280;49820;33.966;73.390;2023-09-30T07:34:36;78996.47;;;30.57;40.64
63665;BME280;49820;33.966;73.390;2023-09-30T07:37:05;78972.16;;;30.59;47.02
63665;BME280;49820;33.966;73.390;2023-09-30T07:39:34;78969.16;;;29.96;31.57
63665;BME280;49820;33.966;73.390;2023-09-30T07:42:03;79005.97;;;30.34;43.07
63665;BME280;49820;33.966;73.390;2023-09-30T07:44:32;78993.97;;;30.38;39.70
63665;BME280;49820;33.966;73.390;2023-09-30T07:47:23;78978.72;;;30.39;37.81
63665;BME280;49820;33.966;73.390;2023-09-30T07:49:52;78946.44;;;30.37;39.96
63665;BME280;49820;33.966;73.390;2023-09-30T07:52:21;78964.06;;;30.49;40.57
63665;BME280;49820;33.966;73.390;2023-09-30T07:54:49;78949.31;;;30.11;40.44
63665;BME280;49820;33.966;73.390;2023-09-30T07:57:18;78975.44;;;30.45;42.67
63665;BME280;49820;33.966;73.390;2023-09-30T07:59:49;78981.97;;;30.73;38.71
63665;BME280;49820;33.966;73.390;2023-09-30T08:02:17;78985.28;;;30.91;38.23
63665;BME280;49820;33.966;73.390;2023-09-30T08:04:46;78959.19;;;30.49;40.51
63665;BME280;49820;33.966;73.390;2023-09-30T08:07:16;78979.50;;;31.11;38.20
63665;BME280;49820;33.966;73.390;2023-09-30T08:09:44;78984.38;;;30.45;37.91
63665;BME280;49820;33.966;73.390;2023-09-30T08:12:14;78955.69;;;29.17;41.68
63665;BME280;49820;33.966;73.390;2023-09-30T08:14:43;78943.38;;;29.16;40.85
63665;BME280;49820;33.966;73.390;2023-09-30T08:17:13;78971.50;;;28.56;39.43
63665;BME280;49820;33.966;73.390;2023-09-30T08:19:42;78963.22;;;29.68;39.84
63665;BME280;49820;33.966;73.390;2023-09-30T08:22:11;78969.19;;;29.79;43.13
63665;BME280;49820;33.966;73.390;2023-09-30T08:24:40;78967.00;;;30.14;40.53
63665;BME280;49820;33.966;73.390;2023-09-30T08:27:09;78969.44;;;30.42;40.32
63665;BME280;49820;33.966;73.390;2023-09-30T08:29:50;78966.59;;;30.68;39.89
63665;BME280;49820;33.966;73.390;2023-09-30T08:32:19;78942.84;;;30.47;42.73
63665;BME280;49820;33.966;73.390;2023-09-30T08:34:51;78965.53;;;30.48;40.02
63665;BME280;49820;33.966;73.390;2023-09-30T08:37:20;78929.78;;;29.98;38.22
63665;BME280;49820;33.966;73.390;2023-09-30T08:39:49;78933.69;;;29.00;41.05
63665;BME280;49820;33.966;73.390;2023-09-30T08:42:22;78912.63;;;28.96;39.07
63665;BME280;49820;33.966;73.390;2023-09-30T08:44:53;78909.97;;;29.54;39.52
63665;BME280;49820;33.966;73.390;2023-09-30T08:47:28;78960.84;;;29.30;40.70
63665;BME280;49820;33.966;73.390;2023-09-30T08:49:59;78959.16;;;28.38;36.13
63665;BME280;49820;33.966;73.390;2023-09-30T08:52:35;78951.00;;;28.90;30.23
63665;BME280;49820;33.966;73.390;2023-09-30T08:55:11;78934.31;;;28.57;34.17
63665;BME280;49820;33.966;73.390;2023-09-30T08:57:42;78900.19;;;28.89;40.28
63665;BME280;49820;33.966;73.390;2023-09-30T09:00:12;78906.22;;;27.86;34.00
63665;BME280;49820;33.966;73.390;2023-09-30T09:02:42;78921.03;;;29.11;38.06
63665;BME280;49820;33.966;73.390;2023-09-30T09:05:32;78928.97;;;27.84;39.52
63665;BME280;49820;33.966;73.390;2023-09-30T09:08:00;78899.31;;;25.81;40.33
63665;BME280;49820;33.966;73.390;2023-09-30T09:10:29;78936.41;;;25.69;37.18
63665;BME280;49820;33.966;73.390;2023-09-30T09:13:01;78906.81;;;26.77;41.40
63665;BME280;49820;33.966;73.390;2023-09-30T09:15:30;78937.88;;;27.12;40.50
63665;BME280;49820;33.966;73.390;2023-09-30T09:17:59;78915.25;;;27.39;38.88
63665;BME280;49820;33.966;73.390;2023-09-30T09:20:31;78887.47;;;26.98;41.80
63665;BME280;49820;33.966;73.390;2023-09-30T09:23:00;78892.66;;;27.39;39.94
63665;BME280;49820;33.966;73.390;2023-09-30T09:25:38;78916.69;;;25.18;45.24
63665;BME280;49820;33.966;73.390;2023-09-30T09:28:07;78935.13;;;24.87;43.90
63665;BME280;49820;33.966;73.390;2023-09-30T09:30:38;78874.59;;;25.53;44.28
63665;BME280;49820;33.966;73.390;2023-09-30T09:33:09;78911.59;;;26.68;44.58
63665;BME280;49820;33.966;73.390;2023-09-30T09:35:38;78924.09;;;27.03;42.33
63665;BME280;49820;33.966;73.390;2023-09-30T09:38:07;78919.94;;;26.57;44.98
63665;BME280;49820;33.966;73.390;2023-09-30T09:40:37;78920.00;;;26.66;46.69
63665;BME280;49820;33.966;73.390;2023-09-30T09:43:09;78914.66;;;25.87;45.15
63665;BME280;49820;33.966;73.390;2023-09-30T09:45:39;78890.75;;;26.15;46.05
63665;BME280;49820;33.966;73.390;2023-09-30T09:48:09;78914.00;;;26.63;43.34
63665;BME280;49820;33.966;73.390;2023-09-30T09:50:38;78907.34;;;26.79;42.41
63665;BME280;49820;33.966;73.390;2023-09-30T09:53:14;78899.91;;;26.78;50.06
63665;BME280;49820;33.966;73.390;2023-09-30T09:55:45;78876.31;;;26.44;50.93
63665;BME280;49820;33.966;73.390;2023-09-30T09:58:16;78909.13;;;26.36;46.83
63665;BME280;49820;33.966;73.390;2023-09-30T10:00:45;78869.91;;;27.04;42.74
63665;BME280;49820;33.966;73.390;2023-09-30T10:03:14;78906.09;;;27.15;47.12
63665;BME280;49820;33.966;73.390;2023-09-30T10:05:44;78902.56;;;27.25;44.20
63665;BME280;49820;33.966;73.390;2023-09-30T10:08:15;78903.78;;;26.53;47.78
63665;BME280;49820;33.966;73.390;2023-09-30T10:10:46;78891.34;;;26.07;44.72
63665;BME280;49820;33.966;73.390;2023-09-30T10:13:53;78889.31;;;26.16;44.47
63665;BME280;49820;33.966;73.390;2023-09-30T10:19:17;78893.63;;;26.13;45.64
63665;BME280;49820;33.966;73.390;2023-09-30T10:24:51;78886.06;;;26.13;45.10
63665;BME280;49820;33.966;73.390;2023-09-30T10:30:08;78888.09;;;25.85;45.23
63665;BME280;49820;33.966;73.390;2023-09-30T10:40:51;78872.44;;;25.15;46.89
63665;BME280;49820;33.966;73.390;2023-09-30T10:43:40;78869.69;;;25.15;46.87
63665;BME280;49820;33.966;73.390;2023-09-30T10:49:38;78859.69;;;25.41;45.74
63665;BME280;49820;33.966;73.390;2023-09-30T10:52:07;78872.00;;;25.51;48.37
63665;BME280;49820;33.966;73.390;2023-09-30T10:54:38;78851.75;;;25.57;44.00
63665;BME280;49820;33.966;73.390;2023-09-30T10:57:20;78864.22;;;25.45;46.54
63665;BME280;49820;33.966;73.390;2023-09-30T11:00:11;78827.72;;;24.99;45.66
63665;BME280;49820;33.966;73.390;2023-09-30T11:02:50;78849.13;;;24.46;46.63
63665;BME280;49820;33.966;73.390;2023-09-30T11:05:22;78854.84;;;24.93;46.81
63665;BME280;49820;33.966;73.390;2023-09-30T11:08:15;78857.16;;;24.99;46.00
63665;BME280;49820;33.966;73.390;2023-09-30T11:10:49;78856.25;;;24.51;47.56
63665;BME280;49820;33.966;73.390;2023-09-30T11:13:20;78834.97;;;24.32;47.66
63665;BME280;49820;33.966;73.390;2023-09-30T11:16:00;78849.44;;;24.10;50.41
63665;BME280;49820;33.966;73.390;2023-09-30T11:18:30;78843.59;;;23.84;49.66
63665;BME280;49820;33.966;73.390;2023-09-30T11:21:12;78808.94;;;23.40;51.77
63665;BME280;49820;33.966;73.390;2023-09-30T11:23:42;78838.13;;;23.31;49.53
63665;BME280;49820;33.966;73.390;2023-09-30T11:26:14;78816.19;;;23.01;50.60
63665;BME280;49820;33.966;73.390;2023-09-30T11:28:44;78848.91;;;23.22;49.49
63665;BME280;49820;33.966;73.390;2023-09-30T11:31:14;78820.97;;;23.00;49.82
63665;BME280;49820;33.966;73.390;2023-09-30T11:33:48;78840.13;;;22.77;50.97
63665;BME280;49820;33.966;73.390;2023-09-30T11:36:21;78844.06;;;22.23;52.92
63665;BME280;49820;33.966;73.390;2023-09-30T11:38:51;78828.88;;;21.92;51.64
63665;BME280;49820;33.966;73.390;2023-09-30T11:41:33;78840.69;;;21.52;53.15
63665;BME280;49820;33.966;73.390;2023-09-30T11:44:07;78804.44;;;20.84;55.00
63665;BME280;49820;33.966;73.390;2023-09-30T11:46:57;78847.94;;;20.71;58.14
63665;BME280;49820;33.966;73.390;2023-09-30T11:52:06;78846.81;;;20.03;61.73
63665;BME280;49820;33.966;73.390;2023-09-30T11:54:40;78844.31;;;19.99;60.38
63665;BME280;49820;33.966;73.390;2023-09-30T11:57:16;78842.91;;;19.47;63.09
63665;BME280;49820;33.966;73.390;2023-09-30T11:59:49;78812.16;;;19.25;61.63
63665;BME280;49820;33.966;73.390;2023-09-30T12:02:19;78820.59;;;19.19;61.77
63665;BME280;49820;33.966;73.390;2023-09-30T12:04:48;78826.22;;;18.88;63.15
63665;BME280;49820;33.966;73.390;2023-09-30T12:07:17;78844.72;;;18.83;65.46
63665;BME280;49820;33.966;73.390;2023-09-30T12:09:46;78811.66;;;18.39;65.74
63665;BME280;49820;33.966;73.390;2023-09-30T12:12:15;78836.84;;;18.35;65.12
63665;BME280;49820;33.966;73.390;2023-09-30T12:14:44;78839.75;;;18.31;66.27
63665;BME280;49820;33.966;73.390;2023-09-30T12:17:13;78836.59;;;18.12;66.75
63665;BME280;49820;33.966;73.390;2023-09-30T12:19:43;78776.72;;;17.46;67.74
63665;BME280;49820;33.966;73.390;2023-09-30T12:22:11;78827.06;;;17.69;67.88
63665;BME280;49820;33.966;73.390;2023-09-30T12:24:41;78812.22;;;17.38;70.00
63665;BME280;49820;33.966;73.390;2023-09-30T12:27:10;78816.19;;;17.25;70.59
63665;BME280;49820;33.966;73.390;2023-09-30T12:29:38;78803.72;;;17.17;69.91
63665;BME280;49820;33.966;73.390;2023-09-30T12:32:09;78810.28;;;17.05;72.12
63665;BME280;49820;33.966;73.390;2023-09-30T12:34:38;78833.19;;;17.06;74.17
63665;BME280;49820;33.966;73.390;2023-09-30T12:37:07;78823.56;;;16.95;73.60
63665;BME280;49820;33.966;73.390;2023-09-30T12:39:36;78824.34;;;16.76;74.64
63665;BME280;49820;33.966;73.390;2023-09-30T12:42:05;78793.47;;;16.40;74.07
63665;BME280;49820;33.966;73.390;2023-09-30T12:44:37;78718.31;;;15.67;74.96
63665;BME280;49820;33.966;73.390;2023-09-30T12:47:07;78788.53;;;16.13;74.78
63665;BME280;49820;33.966;73.390;2023-09-30T12:49:36;78784.53;;;15.95;75.17
63665;BME280;49820;33.966;73.390;2023-09-30T12:52:05;78774.22;;;15.67;76.72
63665;BME280;49820;33.966;73.390;2023-09-30T12:54:34;78771.06;;;15.62;77.70
63665;BME280;49820;33.966;73.390;2023-09-30T12:57:03;78781.75;;;15.64;79.44
63665;BME280;49820;33.966;73.390;2023-09-30T12:59:32;78824.75;;;15.83;78.16
63665;BME280;49820;33.966;73.390;2023-09-30T13:02:05;78803.69;;;15.54;81.53
63665;BME280;49820;33.966;73.390;2023-09-30T13:04:34;78813.31;;;15.65;83.10
63665;BME280;49820;33.966;73.390;2023-09-30T13:07:11;78819.84;;;15.54;84.01
63665;BME280;49820;33.966;73.390;2023-09-30T13:09:41;78818.41;;;15.38;85.23
63665;BME280;49820;33.966;73.390;2023-09-30T13:12:17;78785.19;;;15.08;83.46
63665;BME280;49820;33.966;73.390;2023-09-30T13:14:48;78815.00;;;15.21;72.11
63665;BME280;49820;33.966;73.390;2023-09-30T13:17:17;78783.84;;;14.91;69.49
63665;BME280;49820;33.966;73.390;2023-09-30T13:19:46;78787.56;;;14.81;68.88
63665;BME280;49820;33.966;73.390;2023-09-30T13:22:15;78769.03;;;14.54;67.36
63665;BME280;49820;33.966;73.390;2023-09-30T13:24:46;78787.22;;;14.54;62.44
63665;BME280;49820;33.966;73.390;2023-09-30T13:27:15;78746.84;;;13.97;65.06
63665;BME280;49820;33.966;73.390;2023-09-30T13:29:45;78802.41;;;14.42;67.63